No particular awareness of the weather is required.    There are no Weather-warnings


Meteo18 Weather Cam more information Meteo18 Weather Cam


Thunder radar more information blitzortung!


Rain radar more information rain snow radar


Visit our other weather sites:

Template documentation
and downloads

And another site



Weather Underground History page Text

Daily Summary for May 25, 2017 Units:  Both    English   Metric
« Previous Day
Next Day »
Daily Weekly Monthly Yearly Custom
  High: Low: Average:
Temperature: TemperatureC °F /  -17.8 °C 13.6 °F /  -10.2 °C 19.9 °F /  -6.7 °C
Dew Point: DewpointC °F /  -17.8 °C 12.1 °F /  -11.1 °C 13.9 °F /  -10.1 °C
Humidity: Humidity % 49 % 70 %
Wind Speed: WindSpeedKMH mph /  0 km/h - 9.4 mph /  15.1 km/h
Wind Gust: WindSpeedGustKMH mph /  0 km/h - -
Wind:- - ENE
Pressure: PressurehPa in /  0 hPa 1017.8 in /  34462.7 hPa -
Precipitation: 0.0 in /  0 mm    
Historical Graphs
 
 
Tabular Data for May 25, 2017
Time Temperature Dew Point Pressure Wind Wind Speed Wind Gust Humidity Rainfall Rate (Hourly)
TemperatureC °F /  -17.8 °C DewpointC °F /  -17.8 °C PressurehPa in /  0 hPa Calm     Humidity % HourlyPrecipMM in /  0 mm
00:02 16.7 °F /  -8.5 °C 14.2 °F /  -9.9 °C 1023.6 in /  34659.1 hPa Calm   12.9 mph /  20.8 km/h 85 % 0.0 in /  0 mm
00:12 16.7 °F /  -8.5 °C 14.2 °F /  -9.9 °C 1023.2 in /  34645.6 hPa NE 4.8 mph /  7.7 km/h 11.3 mph /  18.2 km/h 85 % 0.0 in /  0 mm
00:17 16.8 °F /  -8.4 °C 14.3 °F /  -9.8 °C 1023.2 in /  34645.6 hPa Calm   11.3 mph /  18.2 km/h 85 % 0.0 in /  0 mm
00:22 16.8 °F /  -8.4 °C 14.3 °F /  -9.8 °C 1023.2 in /  34645.6 hPa NE 4.8 mph /  7.7 km/h 11.3 mph /  18.2 km/h 85 % 0.0 in /  0 mm
00:32 16.8 °F /  -8.4 °C 14.3 °F /  -9.8 °C 1023.2 in /  34645.6 hPa NW 9.7 mph /  15.6 km/h 12.9 mph /  20.8 km/h 85 % 0.0 in /  0 mm
00:37 16.8 °F /  -8.4 °C 14.3 °F /  -9.8 °C 1023.2 in /  34645.6 hPa NNW 3.2 mph /  5.1 km/h 12.9 mph /  20.8 km/h 85 % 0.0 in /  0 mm
00:42 16.7 °F /  -8.5 °C 14.2 °F /  -9.9 °C 1023.2 in /  34645.6 hPa North 1.6 mph /  2.6 km/h 12.9 mph /  20.8 km/h 85 % 0.0 in /  0 mm
00:47 16.7 °F /  -8.5 °C 14.2 °F /  -9.9 °C 1023.2 in /  34645.6 hPa NNW 4.8 mph /  7.7 km/h 12.9 mph /  20.8 km/h 85 % 0.0 in /  0 mm
00:52 16.6 °F /  -8.6 °C 14.1 °F /  -9.9 °C 1023.2 in /  34645.6 hPa NE 1.6 mph /  2.6 km/h 12.9 mph /  20.8 km/h 85 % 0.0 in /  0 mm
00:57 16.5 °F /  -8.6 °C 14.1 °F /  -9.9 °C 1023.2 in /  34645.6 hPa NNW 3.2 mph /  5.1 km/h 12.9 mph /  20.8 km/h 86 % 0.0 in /  0 mm
01:02 16.4 °F /  -8.7 °C 13.9 °F /  -10.1 °C 1023.2 in /  34645.6 hPa NNE 3.2 mph /  5.1 km/h 12.9 mph /  20.8 km/h 85 % 0.0 in /  0 mm
01:12 16.3 °F /  -8.7 °C 14.0 °F /  -10 °C 1023.2 in /  34645.6 hPa NNE 6.4 mph /  10.3 km/h 12.9 mph /  20.8 km/h 86 % 0.0 in /  0 mm
01:17 16.4 °F /  -8.7 °C 13.9 °F /  -10.1 °C 1023.2 in /  34645.6 hPa NE 3.2 mph /  5.1 km/h 11.3 mph /  18.2 km/h 85 % 0.0 in /  0 mm
01:22 16.5 °F /  -8.6 °C 14.0 °F /  -10 °C 1023.2 in /  34645.6 hPa North 6.4 mph /  10.3 km/h 11.3 mph /  18.2 km/h 85 % 0.0 in /  0 mm
01:27 16.6 °F /  -8.6 °C 14.1 °F /  -9.9 °C 1023.2 in /  34645.6 hPa NNE 8.0 mph /  12.9 km/h 17.7 mph /  28.5 km/h 85 % 0.0 in /  0 mm
01:32 16.7 °F /  -8.5 °C 14.0 °F /  -10 °C 1023.2 in /  34645.6 hPa NE 11.3 mph /  18.2 km/h 17.7 mph /  28.5 km/h 84 % 0.0 in /  0 mm
01:37 16.8 °F /  -8.4 °C 13.9 °F /  -10.1 °C 1023.2 in /  34645.6 hPa NNE 8.0 mph /  12.9 km/h 17.7 mph /  28.5 km/h 83 % 0.0 in /  0 mm
01:42 16.8 °F /  -8.4 °C 13.9 °F /  -10.1 °C 1023.2 in /  34645.6 hPa NE 8.0 mph /  12.9 km/h 17.7 mph /  28.5 km/h 83 % 0.0 in /  0 mm
01:47 16.8 °F /  -8.4 °C 13.9 °F /  -10.1 °C 1022.9 in /  34635.4 hPa NE 11.3 mph /  18.2 km/h 14.5 mph /  23.3 km/h 83 % 0.0 in /  0 mm
01:52 16.8 °F /  -8.4 °C 13.7 °F /  -10.2 °C 1022.9 in /  34635.4 hPa NE 9.7 mph /  15.6 km/h 14.5 mph /  23.3 km/h 82 % 0.0 in /  0 mm
02:02 16.6 °F /  -8.6 °C 13.7 °F /  -10.2 °C 1022.9 in /  34635.4 hPa NE 4.8 mph /  7.7 km/h 17.7 mph /  28.5 km/h 83 % 0.0 in /  0 mm
02:12 16.3 °F /  -8.7 °C 13.4 °F /  -10.3 °C 1022.9 in /  34635.4 hPa NE 8.0 mph /  12.9 km/h 12.9 mph /  20.8 km/h 83 % 0.0 in /  0 mm
02:17 16.3 °F /  -8.7 °C 13.4 °F /  -10.3 °C 1022.9 in /  34635.4 hPa NE 8.0 mph /  12.9 km/h 11.3 mph /  18.2 km/h 83 % 0.0 in /  0 mm
02:22 16.3 °F /  -8.7 °C 13.4 °F /  -10.3 °C 1022.9 in /  34635.4 hPa ENE 6.4 mph /  10.3 km/h 11.3 mph /  18.2 km/h 83 % 0.0 in /  0 mm
02:32 16.1 °F /  -8.8 °C 13.2 °F /  -10.4 °C 1022.9 in /  34635.4 hPa NE 4.8 mph /  7.7 km/h 12.9 mph /  20.8 km/h 83 % 0.0 in /  0 mm
02:37 15.9 °F /  -8.9 °C 13.2 °F /  -10.4 °C 1022.9 in /  34635.4 hPa NE 6.4 mph /  10.3 km/h 11.3 mph /  18.2 km/h 84 % 0.0 in /  0 mm
02:42 15.8 °F /  -9 °C 13.3 °F /  -10.4 °C 1022.6 in /  34625.2 hPa NE 4.8 mph /  7.7 km/h 11.3 mph /  18.2 km/h 85 % 0.0 in /  0 mm
02:47 15.7 °F /  -9.1 °C 13.2 °F /  -10.4 °C 1022.6 in /  34625.2 hPa NE 3.2 mph /  5.1 km/h 9.7 mph /  15.6 km/h 85 % 0.0 in /  0 mm
02:52 15.7 °F /  -9.1 °C 13.2 °F /  -10.4 °C 1022.6 in /  34625.2 hPa NE 3.2 mph /  5.1 km/h 9.7 mph /  15.6 km/h 85 % 0.0 in /  0 mm
02:57 15.7 °F /  -9.1 °C 13.2 °F /  -10.4 °C 1022.6 in /  34625.2 hPa NNE 4.8 mph /  7.7 km/h 8.0 mph /  12.9 km/h 85 % 0.0 in /  0 mm
03:02 15.6 °F /  -9.1 °C 13.1 °F /  -10.5 °C 1022.6 in /  34625.2 hPa NE 6.4 mph /  10.3 km/h 8.0 mph /  12.9 km/h 85 % 0.0 in /  0 mm
03:12 15.4 °F /  -9.2 °C 12.9 °F /  -10.6 °C 1022.2 in /  34611.7 hPa NNE 3.2 mph /  5.1 km/h 8.0 mph /  12.9 km/h 85 % 0.0 in /  0 mm
03:17 15.3 °F /  -9.3 °C 12.8 °F /  -10.7 °C 1022.2 in /  34611.7 hPa NNE 3.2 mph /  5.1 km/h 8.0 mph /  12.9 km/h 85 % 0.0 in /  0 mm
03:22 15.1 °F /  -9.4 °C 12.8 °F /  -10.7 °C 1022.2 in /  34611.7 hPa North 1.6 mph /  2.6 km/h 8.0 mph /  12.9 km/h 86 % 0.0 in /  0 mm
03:32 14.8 °F /  -9.6 °C 12.7 °F /  -10.7 °C 1022.2 in /  34611.7 hPa North 4.8 mph /  7.7 km/h 4.8 mph /  7.7 km/h 87 % 0.0 in /  0 mm
03:37 14.8 °F /  -9.6 °C 12.7 °F /  -10.7 °C 1022.2 in /  34611.7 hPa NNE 4.8 mph /  7.7 km/h 8.0 mph /  12.9 km/h 87 % 0.0 in /  0 mm
03:42 14.7 °F /  -9.6 °C 12.6 °F /  -10.8 °C 1022.2 in /  34611.7 hPa NNE 4.8 mph /  7.7 km/h 8.0 mph /  12.9 km/h 87 % 0.0 in /  0 mm
03:47 14.6 °F /  -9.7 °C 12.5 °F /  -10.8 °C 1022.2 in /  34611.7 hPa North 3.2 mph /  5.1 km/h 9.7 mph /  15.6 km/h 87 % 0.0 in /  0 mm
03:52 14.6 °F /  -9.7 °C 12.6 °F /  -10.8 °C 1022.2 in /  34611.7 hPa NE 4.8 mph /  7.7 km/h 9.7 mph /  15.6 km/h 88 % 0.0 in /  0 mm
03:57 14.5 °F /  -9.7 °C 12.5 °F /  -10.8 °C 1022.2 in /  34611.7 hPa North 3.2 mph /  5.1 km/h 8.0 mph /  12.9 km/h 88 % 0.0 in /  0 mm
04:02 14.4 °F /  -9.8 °C 12.4 °F /  -10.9 °C 1022.2 in /  34611.7 hPa NNE 4.8 mph /  7.7 km/h 8.0 mph /  12.9 km/h 88 % 0.0 in /  0 mm
04:12 14.4 °F /  -9.8 °C 12.4 °F /  -10.9 °C 1022.2 in /  34611.7 hPa NE 4.8 mph /  7.7 km/h 8.0 mph /  12.9 km/h 88 % 0.0 in /  0 mm
04:17 14.4 °F /  -9.8 °C 12.4 °F /  -10.9 °C 1022.2 in /  34611.7 hPa NNE 6.4 mph /  10.3 km/h 12.9 mph /  20.8 km/h 88 % 0.0 in /  0 mm
04:22 14.3 °F /  -9.8 °C 12.5 °F /  -10.8 °C 1022.2 in /  34611.7 hPa NE 8.0 mph /  12.9 km/h 12.9 mph /  20.8 km/h 89 % 0.0 in /  0 mm
04:27 14.3 °F /  -9.8 °C 12.3 °F /  -10.9 °C 1022.2 in /  34611.7 hPa NNW 8.0 mph /  12.9 km/h 9.7 mph /  15.6 km/h 88 % 0.0 in /  0 mm
04:32 14.3 °F /  -9.8 °C 12.3 °F /  -10.9 °C 1022.2 in /  34611.7 hPa NNE 3.2 mph /  5.1 km/h 9.7 mph /  15.6 km/h 88 % 0.0 in /  0 mm
04:37 14.2 °F /  -9.9 °C 12.2 °F /  -11 °C 1021.9 in /  34601.5 hPa North 3.2 mph /  5.1 km/h 11.3 mph /  18.2 km/h 88 % 0.0 in /  0 mm
04:42 14.2 °F /  -9.9 °C 12.4 °F /  -10.9 °C 1021.9 in /  34601.5 hPa NNE 8.0 mph /  12.9 km/h 11.3 mph /  18.2 km/h 89 % 0.0 in /  0 mm
04:47 14.2 °F /  -9.9 °C 12.4 °F /  -10.9 °C 1021.9 in /  34601.5 hPa NNE 3.2 mph /  5.1 km/h 11.3 mph /  18.2 km/h 89 % 0.0 in /  0 mm
04:52 14.1 °F /  -9.9 °C 12.3 °F /  -10.9 °C 1021.9 in /  34601.5 hPa Calm   11.3 mph /  18.2 km/h 89 % 0.0 in /  0 mm
05:02 14.1 °F /  -9.9 °C 12.3 °F /  -10.9 °C 1021.9 in /  34601.5 hPa North 4.8 mph /  7.7 km/h 9.7 mph /  15.6 km/h 89 % 0.0 in /  0 mm
05:12 13.9 °F /  -10.1 °C 12.3 °F /  -10.9 °C 1021.9 in /  34601.5 hPa NNE 4.8 mph /  7.7 km/h 11.3 mph /  18.2 km/h 90 % 0.0 in /  0 mm
05:17 14.1 °F /  -9.9 °C 12.5 °F /  -10.8 °C 1021.9 in /  34601.5 hPa NNE 3.2 mph /  5.1 km/h 11.3 mph /  18.2 km/h 90 % 0.0 in /  0 mm
05:22 14.1 °F /  -9.9 °C 12.3 °F /  -10.9 °C 1021.9 in /  34601.5 hPa NNE 4.8 mph /  7.7 km/h 11.3 mph /  18.2 km/h 89 % 0.0 in /  0 mm
05:32 14.1 °F /  -9.9 °C 12.3 °F /  -10.9 °C 1021.9 in /  34601.5 hPa Calm   8.0 mph /  12.9 km/h 89 % 0.0 in /  0 mm
05:42 13.9 °F /  -10.1 °C 12.1 °F /  -11.1 °C 1021.9 in /  34601.5 hPa NNE 1.6 mph /  2.6 km/h 6.4 mph /  10.3 km/h 89 % 0.0 in /  0 mm
05:47 13.8 °F /  -10.1 °C 12.2 °F /  -11 °C 1021.9 in /  34601.5 hPa NNE 1.6 mph /  2.6 km/h 6.4 mph /  10.3 km/h 90 % 0.0 in /  0 mm
05:52 13.8 °F /  -10.1 °C 12.2 °F /  -11 °C 1021.6 in /  34591.4 hPa North 1.6 mph /  2.6 km/h 6.4 mph /  10.3 km/h 90 % 0.0 in /  0 mm
06:02 13.7 °F /  -10.2 °C 12.1 °F /  -11.1 °C 1021.6 in /  34591.4 hPa NE 1.6 mph /  2.6 km/h 4.8 mph /  7.7 km/h 90 % 0.0 in /  0 mm
06:12 13.6 °F /  -10.2 °C 12.2 °F /  -11 °C 1021.6 in /  34591.4 hPa NE 6.4 mph /  10.3 km/h 6.4 mph /  10.3 km/h 91 % 0.0 in /  0 mm
06:17 13.7 °F /  -10.2 °C 12.3 °F /  -10.9 °C 1021.9 in /  34601.5 hPa NNE 4.8 mph /  7.7 km/h 6.4 mph /  10.3 km/h 91 % 0.0 in /  0 mm
06:22 13.7 °F /  -10.2 °C 12.1 °F /  -11.1 °C 1021.9 in /  34601.5 hPa NNE 8.0 mph /  12.9 km/h 8.0 mph /  12.9 km/h 90 % 0.0 in /  0 mm
06:32 13.9 °F /  -10.1 °C 12.3 °F /  -10.9 °C 1021.9 in /  34601.5 hPa NNE 6.4 mph /  10.3 km/h 9.7 mph /  15.6 km/h 90 % 0.0 in /  0 mm
06:37 14.2 °F /  -9.9 °C 12.6 °F /  -10.8 °C 1021.9 in /  34601.5 hPa NNE 8.0 mph /  12.9 km/h 9.7 mph /  15.6 km/h 90 % 0.0 in /  0 mm
06:42 14.6 °F /  -9.7 °C 12.8 °F /  -10.7 °C 1021.9 in /  34601.5 hPa North 6.4 mph /  10.3 km/h 9.7 mph /  15.6 km/h 89 % 0.0 in /  0 mm
06:52 14.9 °F /  -9.5 °C 12.9 °F /  -10.6 °C 1021.9 in /  34601.5 hPa NE 6.4 mph /  10.3 km/h 9.7 mph /  15.6 km/h 88 % 0.0 in /  0 mm
06:57 15.1 °F /  -9.4 °C 13.1 °F /  -10.5 °C 1021.9 in /  34601.5 hPa NE 8.0 mph /  12.9 km/h 16.1 mph /  25.9 km/h 88 % 0.0 in /  0 mm
07:02 15.3 °F /  -9.3 °C 13.1 °F /  -10.5 °C 1021.9 in /  34601.5 hPa NE 9.7 mph /  15.6 km/h 16.1 mph /  25.9 km/h 87 % 0.0 in /  0 mm
07:07 15.4 °F /  -9.2 °C 13.2 °F /  -10.4 °C 1021.9 in /  34601.5 hPa NE 6.4 mph /  10.3 km/h 16.1 mph /  25.9 km/h 87 % 0.0 in /  0 mm
07:12 15.5 °F /  -9.2 °C 13.3 °F /  -10.4 °C 1021.9 in /  34601.5 hPa NE 11.3 mph /  18.2 km/h 16.1 mph /  25.9 km/h 87 % 0.0 in /  0 mm
07:17 15.6 °F /  -9.1 °C 13.4 °F /  -10.3 °C 1021.9 in /  34601.5 hPa NNE 9.7 mph /  15.6 km/h 16.1 mph /  25.9 km/h 87 % 0.0 in /  0 mm
07:22 15.7 °F /  -9.1 °C 13.4 °F /  -10.3 °C 1021.9 in /  34601.5 hPa NNE 11.3 mph /  18.2 km/h 17.7 mph /  28.5 km/h 86 % 0.0 in /  0 mm
07:32 15.9 °F /  -8.9 °C 13.6 °F /  -10.2 °C 1022.2 in /  34611.7 hPa NE 8.0 mph /  12.9 km/h 17.7 mph /  28.5 km/h 86 % 0.0 in /  0 mm
07:37 16.1 °F /  -8.8 °C 13.6 °F /  -10.2 °C 1022.2 in /  34611.7 hPa North 8.0 mph /  12.9 km/h 17.7 mph /  28.5 km/h 85 % 0.0 in /  0 mm
07:42 16.2 °F /  -8.8 °C 13.7 °F /  -10.2 °C 1022.2 in /  34611.7 hPa NNE 11.3 mph /  18.2 km/h 20.9 mph /  33.6 km/h 85 % 0.0 in /  0 mm
07:52 16.3 °F /  -8.7 °C 13.8 °F /  -10.1 °C 1022.2 in /  34611.7 hPa NE 11.3 mph /  18.2 km/h 16.1 mph /  25.9 km/h 85 % 0.0 in /  0 mm
07:57 16.3 °F /  -8.7 °C 13.6 °F /  -10.2 °C 1022.2 in /  34611.7 hPa NE 11.3 mph /  18.2 km/h 16.1 mph /  25.9 km/h 84 % 0.0 in /  0 mm
08:02 16.3 °F /  -8.7 °C 13.6 °F /  -10.2 °C 1022.2 in /  34611.7 hPa ENE 9.7 mph /  15.6 km/h 17.7 mph /  28.5 km/h 84 % 0.0 in /  0 mm
08:12 16.4 °F /  -8.7 °C 13.7 °F /  -10.2 °C 1022.2 in /  34611.7 hPa ENE 9.7 mph /  15.6 km/h 17.7 mph /  28.5 km/h 84 % 0.0 in /  0 mm
08:17 16.6 °F /  -8.6 °C 13.7 °F /  -10.2 °C 1022.2 in /  34611.7 hPa NE 3.2 mph /  5.1 km/h 17.7 mph /  28.5 km/h 83 % 0.0 in /  0 mm
08:22 16.7 °F /  -8.5 °C 13.8 °F /  -10.1 °C 1022.2 in /  34611.7 hPa NE 6.4 mph /  10.3 km/h 16.1 mph /  25.9 km/h 83 % 0.0 in /  0 mm
08:32 17.0 °F /  -8.3 °C 13.9 °F /  -10.1 °C 1022.2 in /  34611.7 hPa East 9.7 mph /  15.6 km/h 16.1 mph /  25.9 km/h 82 % 0.0 in /  0 mm
08:37 17.1 °F /  -8.3 °C 13.8 °F /  -10.1 °C 1022.2 in /  34611.7 hPa NE 9.7 mph /  15.6 km/h 16.1 mph /  25.9 km/h 81 % 0.0 in /  0 mm
08:42 17.2 °F /  -8.2 °C 14.1 °F /  -9.9 °C 1022.2 in /  34611.7 hPa ENE 11.3 mph /  18.2 km/h 17.7 mph /  28.5 km/h 82 % 0.0 in /  0 mm
08:52 17.6 °F /  -8 °C 14.3 °F /  -9.8 °C 1022.2 in /  34611.7 hPa ENE 8.0 mph /  12.9 km/h 17.7 mph /  28.5 km/h 81 % 0.0 in /  0 mm
08:57 17.7 °F /  -7.9 °C 14.2 °F /  -9.9 °C 1022.2 in /  34611.7 hPa ENE 3.2 mph /  5.1 km/h 17.7 mph /  28.5 km/h 80 % 0.0 in /  0 mm
09:02 17.9 °F /  -7.8 °C 14.4 °F /  -9.8 °C 1022.2 in /  34611.7 hPa ENE 6.4 mph /  10.3 km/h 17.7 mph /  28.5 km/h 80 % 0.0 in /  0 mm
09:07 18.2 °F /  -7.7 °C 14.5 °F /  -9.7 °C 1022.2 in /  34611.7 hPa ENE 6.4 mph /  10.3 km/h 17.7 mph /  28.5 km/h 79 % 0.0 in /  0 mm
09:12 18.3 °F /  -7.6 °C 14.4 °F /  -9.8 °C 1022.2 in /  34611.7 hPa NNE 6.4 mph /  10.3 km/h 14.5 mph /  23.3 km/h 78 % 0.0 in /  0 mm
09:17 18.4 °F /  -7.6 °C 14.5 °F /  -9.7 °C 1022.2 in /  34611.7 hPa ENE 4.8 mph /  7.7 km/h 14.5 mph /  23.3 km/h 78 % 0.0 in /  0 mm
09:22 18.6 °F /  -7.4 °C 14.7 °F /  -9.6 °C 1022.2 in /  34611.7 hPa NNE 8.0 mph /  12.9 km/h 16.1 mph /  25.9 km/h 78 % 0.0 in /  0 mm
09:32 18.8 °F /  -7.3 °C 14.5 °F /  -9.7 °C 1022.2 in /  34611.7 hPa NE 12.9 mph /  20.8 km/h 19.3 mph /  31.1 km/h 76 % 0.0 in /  0 mm
09:42 19.2 °F /  -7.1 °C 14.7 °F /  -9.6 °C 1022.2 in /  34611.7 hPa ENE 9.7 mph /  15.6 km/h 19.3 mph /  31.1 km/h 75 % 0.0 in /  0 mm
09:47 19.4 °F /  -7 °C 14.9 °F /  -9.5 °C 1022.2 in /  34611.7 hPa NE 8.0 mph /  12.9 km/h 19.3 mph /  31.1 km/h 75 % 0.0 in /  0 mm
09:52 19.6 °F /  -6.9 °C 14.8 °F /  -9.6 °C 1022.2 in /  34611.7 hPa NE 8.0 mph /  12.9 km/h 19.3 mph /  31.1 km/h 74 % 0.0 in /  0 mm
10:02 19.9 °F /  -6.7 °C 14.7 °F /  -9.6 °C 1022.2 in /  34611.7 hPa ENE 8.0 mph /  12.9 km/h 17.7 mph /  28.5 km/h 72 % 0.0 in /  0 mm
10:12 20.2 °F /  -6.6 °C 15.0 °F /  -9.4 °C 1022.2 in /  34611.7 hPa NE 4.8 mph /  7.7 km/h 19.3 mph /  31.1 km/h 72 % 0.0 in /  0 mm
10:17 20.2 °F /  -6.6 °C 14.8 °F /  -9.6 °C 1022.2 in /  34611.7 hPa NNE 8.0 mph /  12.9 km/h 19.3 mph /  31.1 km/h 71 % 0.0 in /  0 mm
10:22 20.4 °F /  -6.4 °C 14.7 °F /  -9.6 °C 1022.2 in /  34611.7 hPa NE 4.8 mph /  7.7 km/h 19.3 mph /  31.1 km/h 70 % 0.0 in /  0 mm
10:27 20.4 °F /  -6.4 °C 15.0 °F /  -9.4 °C 1022.2 in /  34611.7 hPa NNE 16.1 mph /  25.9 km/h 19.3 mph /  31.1 km/h 71 % 0.0 in /  0 mm
10:32 20.6 °F /  -6.3 °C 15.2 °F /  -9.3 °C 1021.9 in /  34601.5 hPa NE 14.5 mph /  23.3 km/h 19.3 mph /  31.1 km/h 71 % 0.0 in /  0 mm
10:42 20.8 °F /  -6.2 °C 14.9 °F /  -9.5 °C 1021.9 in /  34601.5 hPa East 11.3 mph /  18.2 km/h 22.5 mph /  36.2 km/h 69 % 0.0 in /  0 mm
10:52 21.1 °F /  -6.1 °C 15.0 °F /  -9.4 °C 1021.9 in /  34601.5 hPa NE 9.7 mph /  15.6 km/h 19.3 mph /  31.1 km/h 68 % 0.0 in /  0 mm
10:57 21.1 °F /  -6.1 °C 14.7 °F /  -9.6 °C 1021.9 in /  34601.5 hPa East 8.0 mph /  12.9 km/h 19.3 mph /  31.1 km/h 67 % 0.0 in /  0 mm
11:02 21.4 °F /  -5.9 °C 15.5 °F /  -9.2 °C 1021.9 in /  34601.5 hPa NE 11.3 mph /  18.2 km/h 22.5 mph /  36.2 km/h 69 % 0.0 in /  0 mm
11:12 21.7 °F /  -5.7 °C 14.6 °F /  -9.7 °C 1021.9 in /  34601.5 hPa ENE 11.3 mph /  18.2 km/h 22.5 mph /  36.2 km/h 64 % 0.0 in /  0 mm
11:17 21.8 °F /  -5.7 °C 14.4 °F /  -9.8 °C 1021.6 in /  34591.4 hPa NNW 12.9 mph /  20.8 km/h 22.5 mph /  36.2 km/h 63 % 0.0 in /  0 mm
11:22 21.8 °F /  -5.7 °C 13.9 °F /  -10.1 °C 1021.6 in /  34591.4 hPa ENE 19.3 mph /  31.1 km/h 22.5 mph /  36.2 km/h 61 % 0.0 in /  0 mm
11:32 22.1 °F /  -5.5 °C 13.7 °F /  -10.2 °C 1021.6 in /  34591.4 hPa NE 22.5 mph /  36.2 km/h 29.0 mph /  46.7 km/h 59 % 0.0 in /  0 mm
11:42 22.4 °F /  -5.3 °C 13.5 °F /  -10.3 °C 1021.6 in /  34591.4 hPa ENE 16.1 mph /  25.9 km/h 29.0 mph /  46.7 km/h 57 % 0.0 in /  0 mm
11:47 22.4 °F /  -5.3 °C 13.2 °F /  -10.4 °C 1021.6 in /  34591.4 hPa ENE 14.5 mph /  23.3 km/h 29.0 mph /  46.7 km/h 56 % 0.0 in /  0 mm
11:52 22.5 °F /  -5.3 °C 14.1 °F /  -9.9 °C 1021.6 in /  34591.4 hPa NNE 19.3 mph /  31.1 km/h 30.6 mph /  49.2 km/h 59 % 0.0 in /  0 mm
11:57 22.6 °F /  -5.2 °C 13.4 °F /  -10.3 °C 1021.6 in /  34591.4 hPa ENE 17.7 mph /  28.5 km/h 30.6 mph /  49.2 km/h 56 % 0.0 in /  0 mm
12:02 22.6 °F /  -5.2 °C 14.2 °F /  -9.9 °C 1021.6 in /  34591.4 hPa ENE 14.5 mph /  23.3 km/h 30.6 mph /  49.2 km/h 59 % 0.0 in /  0 mm
12:12 22.7 °F /  -5.2 °C 14.5 °F /  -9.7 °C 1021.6 in /  34591.4 hPa NE 9.7 mph /  15.6 km/h 29.0 mph /  46.7 km/h 60 % 0.0 in /  0 mm
12:17 22.9 °F /  -5.1 °C 14.7 °F /  -9.6 °C 1021.6 in /  34591.4 hPa NE 16.1 mph /  25.9 km/h 29.0 mph /  46.7 km/h 60 % 0.0 in /  0 mm
12:22 23.0 °F /  -5 °C 14.8 °F /  -9.6 °C 1021.6 in /  34591.4 hPa NNE 22.5 mph /  36.2 km/h 27.4 mph /  44.1 km/h 60 % 0.0 in /  0 mm
12:32 22.9 °F /  -5.1 °C 14.7 °F /  -9.6 °C 1021.6 in /  34591.4 hPa NE 12.9 mph /  20.8 km/h 27.4 mph /  44.1 km/h 60 % 0.0 in /  0 mm
12:42 23.1 °F /  -4.9 °C 14.4 °F /  -9.8 °C 1021.2 in /  34577.8 hPa NE 17.7 mph /  28.5 km/h 29.0 mph /  46.7 km/h 58 % 0.0 in /  0 mm
12:47 23.1 °F /  -4.9 °C 14.1 °F /  -9.9 °C 1021.2 in /  34577.8 hPa ENE 24.1 mph /  38.8 km/h 29.0 mph /  46.7 km/h 57 % 0.0 in /  0 mm
12:52 23.3 °F /  -4.8 °C 14.8 °F /  -9.6 °C 1021.2 in /  34577.8 hPa NE 8.0 mph /  12.9 km/h 30.6 mph /  49.2 km/h 59 % 0.0 in /  0 mm
13:02 23.3 °F /  -4.8 °C 14.0 °F /  -10 °C 1021.2 in /  34577.8 hPa NE 16.1 mph /  25.9 km/h 30.6 mph /  49.2 km/h 56 % 0.0 in /  0 mm
13:07 23.3 °F /  -4.8 °C 14.3 °F /  -9.8 °C 1021.2 in /  34577.8 hPa East 12.9 mph /  20.8 km/h 24.1 mph /  38.8 km/h 57 % 0.0 in /  0 mm
13:17 23.6 °F /  -4.7 °C 14.3 °F /  -9.8 °C 1020.9 in /  34567.7 hPa ENE 22.5 mph /  36.2 km/h 24.1 mph /  38.8 km/h 56 % 0.0 in /  0 mm
13:22 23.8 °F /  -4.6 °C 14.8 °F /  -9.6 °C 1020.9 in /  34567.7 hPa ENE 9.7 mph /  15.6 km/h 27.4 mph /  44.1 km/h 57 % 0.0 in /  0 mm
13:32 23.7 °F /  -4.6 °C 14.4 °F /  -9.8 °C 1020.9 in /  34567.7 hPa NE 17.7 mph /  28.5 km/h 27.4 mph /  44.1 km/h 56 % 0.0 in /  0 mm
13:37 23.7 °F /  -4.6 °C 14.1 °F /  -9.9 °C 1020.9 in /  34567.7 hPa NNE 12.9 mph /  20.8 km/h 27.4 mph /  44.1 km/h 55 % 0.0 in /  0 mm
13:42 23.9 °F /  -4.5 °C 14.6 °F /  -9.7 °C 1020.9 in /  34567.7 hPa NE 12.9 mph /  20.8 km/h 27.4 mph /  44.1 km/h 56 % 0.0 in /  0 mm
13:52 23.8 °F /  -4.6 °C 15.3 °F /  -9.3 °C 1020.9 in /  34567.7 hPa NNE 14.5 mph /  23.3 km/h 25.7 mph /  41.4 km/h 59 % 0.0 in /  0 mm
13:57 23.9 °F /  -4.5 °C 14.6 °F /  -9.7 °C 1020.5 in /  34554.1 hPa NNE 14.5 mph /  23.3 km/h 30.6 mph /  49.2 km/h 56 % 0.0 in /  0 mm
14:02 23.9 °F /  -4.5 °C 14.6 °F /  -9.7 °C 1020.5 in /  34554.1 hPa East 19.3 mph /  31.1 km/h 30.6 mph /  49.2 km/h 56 % 0.0 in /  0 mm
14:12 24.4 °F /  -4.2 °C 14.2 °F /  -9.9 °C 1020.5 in /  34554.1 hPa NNE 16.1 mph /  25.9 km/h 30.6 mph /  49.2 km/h 53 % 0.0 in /  0 mm
14:17 24.3 °F /  -4.3 °C 13.8 °F /  -10.1 °C 1020.5 in /  34554.1 hPa NNE 16.1 mph /  25.9 km/h 27.4 mph /  44.1 km/h 52 % 0.0 in /  0 mm
14:22 24.5 °F /  -4.2 °C 14.6 °F /  -9.7 °C 1020.2 in /  34544 hPa NNE 9.7 mph /  15.6 km/h 27.4 mph /  44.1 km/h 54 % 0.0 in /  0 mm
14:32 24.7 °F /  -4.1 °C 14.8 °F /  -9.6 °C 1020.2 in /  34544 hPa NE 14.5 mph /  23.3 km/h 27.4 mph /  44.1 km/h 54 % 0.0 in /  0 mm
14:37 24.7 °F /  -4.1 °C 15.1 °F /  -9.4 °C 1020.2 in /  34544 hPa NE 22.5 mph /  36.2 km/h 27.4 mph /  44.1 km/h 55 % 0.0 in /  0 mm
14:42 24.6 °F /  -4.1 °C 14.1 °F /  -9.9 °C 1020.2 in /  34544 hPa ESE 12.9 mph /  20.8 km/h 27.4 mph /  44.1 km/h 52 % 0.0 in /  0 mm
14:52 24.8 °F /  -4 °C 14.6 °F /  -9.7 °C 1020.2 in /  34544 hPa NNE 29.0 mph /  46.7 km/h 29.0 mph /  46.7 km/h 53 % 0.0 in /  0 mm
14:57 24.7 °F /  -4.1 °C 14.2 °F /  -9.9 °C 1019.9 in /  34533.8 hPa NNE 9.7 mph /  15.6 km/h 33.8 mph /  54.4 km/h 52 % 0.0 in /  0 mm
15:02 24.7 °F /  -4.1 °C 14.2 °F /  -9.9 °C 1019.9 in /  34533.8 hPa ENE 9.7 mph /  15.6 km/h 33.8 mph /  54.4 km/h 52 % 0.0 in /  0 mm
15:12 24.8 °F /  -4 °C 14.6 °F /  -9.7 °C 1019.9 in /  34533.8 hPa NE 11.3 mph /  18.2 km/h 33.8 mph /  54.4 km/h 53 % 0.0 in /  0 mm
15:17 24.8 °F /  -4 °C 14.3 °F /  -9.8 °C 1019.9 in /  34533.8 hPa NE 14.5 mph /  23.3 km/h 29.0 mph /  46.7 km/h 52 % 0.0 in /  0 mm
15:22 24.9 °F /  -3.9 °C 14.4 °F /  -9.8 °C 1019.9 in /  34533.8 hPa ENE 16.1 mph /  25.9 km/h 29.0 mph /  46.7 km/h 52 % 0.0 in /  0 mm
15:27 25.1 °F /  -3.8 °C 14.3 °F /  -9.8 °C 1019.5 in /  34520.3 hPa NNE 17.7 mph /  28.5 km/h 30.6 mph /  49.2 km/h 51 % 0.0 in /  0 mm
15:32 25.1 °F /  -3.8 °C 14.6 °F /  -9.7 °C 1019.5 in /  34520.3 hPa East 11.3 mph /  18.2 km/h 30.6 mph /  49.2 km/h 52 % 0.0 in /  0 mm
15:37 25.2 °F /  -3.8 °C 14.3 °F /  -9.8 °C 1019.9 in /  34533.8 hPa NE 27.4 mph /  44.1 km/h 30.6 mph /  49.2 km/h 51 % 0.0 in /  0 mm
15:42 25.3 °F /  -3.7 °C 14.4 °F /  -9.8 °C 1019.5 in /  34520.3 hPa NE 8.0 mph /  12.9 km/h 30.6 mph /  49.2 km/h 51 % 0.0 in /  0 mm
15:52 25.6 °F /  -3.6 °C 14.7 °F /  -9.6 °C 1019.5 in /  34520.3 hPa ENE 11.3 mph /  18.2 km/h 30.6 mph /  49.2 km/h 51 % 0.0 in /  0 mm
15:57 25.7 °F /  -3.5 °C 15.7 °F /  -9.1 °C 1019.5 in /  34520.3 hPa ENE 6.4 mph /  10.3 km/h 29.0 mph /  46.7 km/h 54 % 0.0 in /  0 mm
16:02 25.7 °F /  -3.5 °C 14.2 °F /  -9.9 °C 1019.5 in /  34520.3 hPa ENE 17.7 mph /  28.5 km/h 29.0 mph /  46.7 km/h 49 % 0.0 in /  0 mm
16:12 25.7 °F /  -3.5 °C 15.4 °F /  -9.2 °C 1019.2 in /  34510.1 hPa NE 16.1 mph /  25.9 km/h 29.0 mph /  46.7 km/h 53 % 0.0 in /  0 mm
16:17 25.8 °F /  -3.4 °C 14.9 °F /  -9.5 °C 1019.2 in /  34510.1 hPa NE 14.5 mph /  23.3 km/h 25.7 mph /  41.4 km/h 51 % 0.0 in /  0 mm
16:22 25.8 °F /  -3.4 °C 15.8 °F /  -9 °C 1019.2 in /  34510.1 hPa NNE 12.9 mph /  20.8 km/h 25.7 mph /  41.4 km/h 54 % 0.0 in /  0 mm
16:32 25.4 °F /  -3.7 °C 16.0 °F /  -8.9 °C 1018.8 in /  34496.6 hPa North 6.4 mph /  10.3 km/h 25.7 mph /  41.4 km/h 56 % 0.0 in /  0 mm
16:37 25.3 °F /  -3.7 °C 15.3 °F /  -9.3 °C 1018.8 in /  34496.6 hPa NNE 14.5 mph /  23.3 km/h 29.0 mph /  46.7 km/h 54 % 0.0 in /  0 mm
16:42 25.4 °F /  -3.7 °C 15.7 °F /  -9.1 °C 1018.8 in /  34496.6 hPa ENE 11.3 mph /  18.2 km/h 29.0 mph /  46.7 km/h 55 % 0.0 in /  0 mm
16:47 25.6 °F /  -3.6 °C 15.9 °F /  -8.9 °C 1018.8 in /  34496.6 hPa NE 16.1 mph /  25.9 km/h 27.4 mph /  44.1 km/h 55 % 0.0 in /  0 mm
16:52 25.4 °F /  -3.7 °C 15.7 °F /  -9.1 °C 1018.8 in /  34496.6 hPa NE 9.7 mph /  15.6 km/h 27.4 mph /  44.1 km/h 55 % 0.0 in /  0 mm
16:57 25.4 °F /  -3.7 °C 15.7 °F /  -9.1 °C 1018.8 in /  34496.6 hPa NE 20.9 mph /  33.6 km/h 30.6 mph /  49.2 km/h 55 % 0.0 in /  0 mm
17:02 25.4 °F /  -3.7 °C 16.3 °F /  -8.7 °C 1018.8 in /  34496.6 hPa NNE 19.3 mph /  31.1 km/h 30.6 mph /  49.2 km/h 57 % 0.0 in /  0 mm
17:12 25.4 °F /  -3.7 °C 15.4 °F /  -9.2 °C 1018.8 in /  34496.6 hPa NE 24.1 mph /  38.8 km/h 29.0 mph /  46.7 km/h 54 % 0.0 in /  0 mm
17:17 25.6 °F /  -3.6 °C 15.6 °F /  -9.1 °C 1018.8 in /  34496.6 hPa NE 14.5 mph /  23.3 km/h 29.0 mph /  46.7 km/h 54 % 0.0 in /  0 mm
17:22 25.6 °F /  -3.6 °C 15.9 °F /  -8.9 °C 1018.8 in /  34496.6 hPa NNE 4.8 mph /  7.7 km/h 27.4 mph /  44.1 km/h 55 % 0.0 in /  0 mm
17:27 25.6 °F /  -3.6 °C 15.6 °F /  -9.1 °C 1018.8 in /  34496.6 hPa NNE 16.1 mph /  25.9 km/h 27.4 mph /  44.1 km/h 54 % 0.0 in /  0 mm
17:32 25.6 °F /  -3.6 °C 15.6 °F /  -9.1 °C 1018.8 in /  34496.6 hPa ENE 9.7 mph /  15.6 km/h 27.4 mph /  44.1 km/h 54 % 0.0 in /  0 mm
17:37 25.6 °F /  -3.6 °C 15.6 °F /  -9.1 °C 1018.5 in /  34486.4 hPa NE 9.7 mph /  15.6 km/h 25.7 mph /  41.4 km/h 54 % 0.0 in /  0 mm
17:42 25.7 °F /  -3.5 °C 16.0 °F /  -8.9 °C 1018.5 in /  34486.4 hPa NE 19.3 mph /  31.1 km/h 25.7 mph /  41.4 km/h 55 % 0.0 in /  0 mm
17:47 25.6 °F /  -3.6 °C 15.9 °F /  -8.9 °C 1018.5 in /  34486.4 hPa NNE 14.5 mph /  23.3 km/h 25.7 mph /  41.4 km/h 55 % 0.0 in /  0 mm
17:52 25.6 °F /  -3.6 °C 15.6 °F /  -9.1 °C 1018.5 in /  34486.4 hPa East 9.7 mph /  15.6 km/h 25.7 mph /  41.4 km/h 54 % 0.0 in /  0 mm
17:57 25.7 °F /  -3.5 °C 16.0 °F /  -8.9 °C 1018.5 in /  34486.4 hPa North 14.5 mph /  23.3 km/h 25.7 mph /  41.4 km/h 55 % 0.0 in /  0 mm
18:02 25.6 °F /  -3.6 °C 15.9 °F /  -8.9 °C 1018.5 in /  34486.4 hPa NNE 12.9 mph /  20.8 km/h 25.7 mph /  41.4 km/h 55 % 0.0 in /  0 mm
18:12 25.4 °F /  -3.7 °C 15.7 °F /  -9.1 °C 1018.2 in /  34476.3 hPa NNE 12.9 mph /  20.8 km/h 24.1 mph /  38.8 km/h 55 % 0.0 in /  0 mm
18:17 25.4 °F /  -3.7 °C 16.0 °F /  -8.9 °C 1018.5 in /  34486.4 hPa NE 11.3 mph /  18.2 km/h 29.0 mph /  46.7 km/h 56 % 0.0 in /  0 mm
18:22 25.5 °F /  -3.6 °C 16.1 °F /  -8.8 °C 1018.5 in /  34486.4 hPa East 16.1 mph /  25.9 km/h 27.4 mph /  44.1 km/h 56 % 0.0 in /  0 mm
18:32 25.4 °F /  -3.7 °C 16.0 °F /  -8.9 °C 1018.2 in /  34476.3 hPa NE 11.3 mph /  18.2 km/h 27.4 mph /  44.1 km/h 56 % 0.0 in /  0 mm
18:42 25.4 °F /  -3.7 °C 16.0 °F /  -8.9 °C 1018.2 in /  34476.3 hPa East 9.7 mph /  15.6 km/h 24.1 mph /  38.8 km/h 56 % 0.0 in /  0 mm
18:47 25.5 °F /  -3.6 °C 15.8 °F /  -9 °C 1018.2 in /  34476.3 hPa ENE 9.7 mph /  15.6 km/h 24.1 mph /  38.8 km/h 55 % 0.0 in /  0 mm
19:02 25.3 °F /  -3.7 °C 15.6 °F /  -9.1 °C 1017.8 in /  34462.7 hPa NNE 12.9 mph /  20.8 km/h 25.7 mph /  41.4 km/h 55 % 0.0 in /  0 mm
19:12 25.2 °F /  -3.8 °C 16.1 °F /  -8.8 °C 1017.8 in /  34462.7 hPa NNE 11.3 mph /  18.2 km/h 24.1 mph /  38.8 km/h 57 % 0.0 in /  0 mm
19:17 25.1 °F /  -3.8 °C 16.0 °F /  -8.9 °C 1017.8 in /  34462.7 hPa NE 12.9 mph /  20.8 km/h 24.1 mph /  38.8 km/h 57 % 0.0 in /  0 mm
19:22 25.0 °F /  -3.9 °C 15.9 °F /  -8.9 °C 1017.8 in /  34462.7 hPa NE 14.5 mph /  23.3 km/h 24.1 mph /  38.8 km/h 57 % 0.0 in /  0 mm
19:32 24.8 °F /  -4 °C 15.7 °F /  -9.1 °C 1017.8 in /  34462.7 hPa NE 8.0 mph /  12.9 km/h 24.1 mph /  38.8 km/h 57 % 0.0 in /  0 mm
19:42 24.7 °F /  -4.1 °C 15.1 °F /  -9.4 °C 1017.8 in /  34462.7 hPa NNE 19.3 mph /  31.1 km/h 24.1 mph /  38.8 km/h 55 % 0.0 in /  0 mm
19:47 24.7 °F /  -4.1 °C 15.3 °F /  -9.3 °C 1017.8 in /  34462.7 hPa NNW 14.5 mph /  23.3 km/h 29.0 mph /  46.7 km/h 56 % 0.0 in /  0 mm
19:52 24.6 °F /  -4.1 °C 15.0 °F /  -9.4 °C 1017.8 in /  34462.7 hPa NE 12.9 mph /  20.8 km/h 29.0 mph /  46.7 km/h 55 % 0.0 in /  0 mm
20:02 24.4 °F /  -4.2 °C 15.1 °F /  -9.4 °C 1017.8 in /  34462.7 hPa NNE 11.3 mph /  18.2 km/h 25.7 mph /  41.4 km/h 56 % 0.0 in /  0 mm
20:12 24.1 °F /  -4.4 °C 14.8 °F /  -9.6 °C 1017.8 in /  34462.7 hPa NE 9.7 mph /  15.6 km/h 25.7 mph /  41.4 km/h 56 % 0.0 in /  0 mm
20:17 24.0 °F /  -4.4 °C 14.7 °F /  -9.6 °C 1017.8 in /  34462.7 hPa NE 11.3 mph /  18.2 km/h 24.1 mph /  38.8 km/h 56 % 0.0 in /  0 mm
20:22 23.9 °F /  -4.5 °C 14.9 °F /  -9.5 °C 1017.8 in /  34462.7 hPa NNE 11.3 mph /  18.2 km/h 24.1 mph /  38.8 km/h 57 % 0.0 in /  0 mm
20:32 23.7 °F /  -4.6 °C 14.4 °F /  -9.8 °C 1017.8 in /  34462.7 hPa NNE 9.7 mph /  15.6 km/h 24.1 mph /  38.8 km/h 56 % 0.0 in /  0 mm
20:42 23.4 °F /  -4.8 °C 13.8 °F /  -10.1 °C 1017.8 in /  34462.7 hPa NE 12.9 mph /  20.8 km/h 24.1 mph /  38.8 km/h 55 % 0.0 in /  0 mm
20:47 23.3 °F /  -4.8 °C 14.0 °F /  -10 °C 1017.8 in /  34462.7 hPa NNE 17.7 mph /  28.5 km/h 22.5 mph /  36.2 km/h 56 % 0.0 in /  0 mm
20:52 23.2 °F /  -4.9 °C 13.9 °F /  -10.1 °C 1017.8 in /  34462.7 hPa NNE 9.7 mph /  15.6 km/h 22.5 mph /  36.2 km/h 56 % 0.0 in /  0 mm
20:57 23.0 °F /  -5 °C 13.7 °F /  -10.2 °C 1017.8 in /  34462.7 hPa NNE 12.9 mph /  20.8 km/h 19.3 mph /  31.1 km/h 56 % 0.0 in /  0 mm
21:02 22.8 °F /  -5.1 °C 13.6 °F /  -10.2 °C 1017.8 in /  34462.7 hPa North 20.9 mph /  33.6 km/h 20.9 mph /  33.6 km/h 56 % 0.0 in /  0 mm
21:07 22.7 °F /  -5.2 °C 13.7 °F /  -10.2 °C 1017.8 in /  34462.7 hPa ENE 4.8 mph /  7.7 km/h 17.7 mph /  28.5 km/h 57 % 0.0 in /  0 mm
21:12 22.4 °F /  -5.3 °C 13.5 °F /  -10.3 °C 1017.8 in /  34462.7 hPa NNE 3.2 mph /  5.1 km/h 17.7 mph /  28.5 km/h 57 % 0.0 in /  0 mm
21:17 22.2 °F /  -5.4 °C 13.3 °F /  -10.4 °C 1017.8 in /  34462.7 hPa North 14.5 mph /  23.3 km/h 20.9 mph /  33.6 km/h 57 % 0.0 in /  0 mm
21:22 22.0 °F /  -5.6 °C 13.4 °F /  -10.3 °C 1017.8 in /  34462.7 hPa NNE 6.4 mph /  10.3 km/h 20.9 mph /  33.6 km/h 58 % 0.0 in /  0 mm
21:32 21.4 °F /  -5.9 °C 13.1 °F /  -10.5 °C 1017.8 in /  34462.7 hPa NE 8.0 mph /  12.9 km/h 16.1 mph /  25.9 km/h 59 % 0.0 in /  0 mm
21:42 21.2 °F /  -6 °C 13.1 °F /  -10.5 °C 1017.8 in /  34462.7 hPa North 1.6 mph /  2.6 km/h 12.9 mph /  20.8 km/h 60 % 0.0 in /  0 mm
21:47 21.0 °F /  -6.1 °C 13.2 °F /  -10.4 °C 1017.8 in /  34462.7 hPa NNE 1.6 mph /  2.6 km/h 9.7 mph /  15.6 km/h 61 % 0.0 in /  0 mm
21:52 20.7 °F /  -6.3 °C 13.4 °F /  -10.3 °C 1017.8 in /  34462.7 hPa NNE 4.8 mph /  7.7 km/h 9.7 mph /  15.6 km/h 63 % 0.0 in /  0 mm
21:57 20.3 °F /  -6.5 °C 13.3 °F /  -10.4 °C 1017.8 in /  34462.7 hPa NNE 8.0 mph /  12.9 km/h 12.9 mph /  20.8 km/h 64 % 0.0 in /  0 mm
22:02 20.1 °F /  -6.6 °C 13.3 °F /  -10.4 °C 1017.8 in /  34462.7 hPa NNE 6.4 mph /  10.3 km/h 12.9 mph /  20.8 km/h 65 % 0.0 in /  0 mm
22:12 19.8 °F /  -6.8 °C 13.0 °F /  -10.6 °C 1018.2 in /  34476.3 hPa NNE 8.0 mph /  12.9 km/h 12.9 mph /  20.8 km/h 65 % 0.0 in /  0 mm
22:17 19.6 °F /  -6.9 °C 12.8 °F /  -10.7 °C 1018.2 in /  34476.3 hPa NE 12.9 mph /  20.8 km/h 14.5 mph /  23.3 km/h 65 % 0.0 in /  0 mm
22:22 19.6 °F /  -6.9 °C 12.8 °F /  -10.7 °C 1018.2 in /  34476.3 hPa NE 6.4 mph /  10.3 km/h 14.5 mph /  23.3 km/h 65 % 0.0 in /  0 mm
22:32 19.6 °F /  -6.9 °C 12.8 °F /  -10.7 °C 1018.2 in /  34476.3 hPa NNE 4.8 mph /  7.7 km/h 17.7 mph /  28.5 km/h 65 % 0.0 in /  0 mm
22:37 19.4 °F /  -7 °C 12.7 °F /  -10.7 °C 1018.2 in /  34476.3 hPa NE 4.8 mph /  7.7 km/h 14.5 mph /  23.3 km/h 65 % 0.0 in /  0 mm
22:42 19.2 °F /  -7.1 °C 12.7 °F /  -10.7 °C 1018.2 in /  34476.3 hPa NNE 6.4 mph /  10.3 km/h 14.5 mph /  23.3 km/h 66 % 0.0 in /  0 mm
22:47 19.2 °F /  -7.1 °C 12.7 °F /  -10.7 °C 1018.2 in /  34476.3 hPa NE 8.0 mph /  12.9 km/h 14.5 mph /  23.3 km/h 66 % 0.0 in /  0 mm
22:52 19.1 °F /  -7.2 °C 12.6 °F /  -10.8 °C 1018.5 in /  34486.4 hPa NNE 6.4 mph /  10.3 km/h 12.9 mph /  20.8 km/h 66 % 0.0 in /  0 mm
22:57 19.2 °F /  -7.1 °C 12.7 °F /  -10.7 °C 1018.5 in /  34486.4 hPa NE 6.4 mph /  10.3 km/h 12.9 mph /  20.8 km/h 66 % 0.0 in /  0 mm
23:02 19.0 °F /  -7.2 °C 12.7 °F /  -10.7 °C 1018.5 in /  34486.4 hPa NE 6.4 mph /  10.3 km/h 12.9 mph /  20.8 km/h 67 % 0.0 in /  0 mm
23:12 18.7 °F /  -7.4 °C 12.7 °F /  -10.7 °C 1018.5 in /  34486.4 hPa NNE 6.4 mph /  10.3 km/h 12.9 mph /  20.8 km/h 68 % 0.0 in /  0 mm
23:22 18.3 °F /  -7.6 °C 12.5 °F /  -10.8 °C 1018.5 in /  34486.4 hPa NNE 3.2 mph /  5.1 km/h 12.9 mph /  20.8 km/h 69 % 0.0 in /  0 mm
23:27 18.1 °F /  -7.7 °C 12.5 °F /  -10.8 °C 1018.5 in /  34486.4 hPa NNW 1.6 mph /  2.6 km/h 11.3 mph /  18.2 km/h 70 % 0.0 in /  0 mm
23:32 17.9 °F /  -7.8 °C 12.6 °F /  -10.8 °C 1018.2 in /  34476.3 hPa NNE 1.6 mph /  2.6 km/h 11.3 mph /  18.2 km/h 71 % 0.0 in /  0 mm
23:37 17.8 °F /  -7.9 °C 12.5 °F /  -10.8 °C 1018.5 in /  34486.4 hPa NE 1.6 mph /  2.6 km/h 6.4 mph /  10.3 km/h 71 % 0.0 in /  0 mm
23:42 17.7 °F /  -7.9 °C 12.4 °F /  -10.9 °C 1018.5 in /  34486.4 hPa Calm   6.4 mph /  10.3 km/h 71 % 0.0 in /  0 mm
23:47 17.8 °F /  -7.9 °C 12.5 °F /  -10.8 °C 1018.5 in /  34486.4 hPa NE 3.2 mph /  5.1 km/h 6.4 mph /  10.3 km/h 71 % 0.0 in /  0 mm
23:52 18.0 °F /  -7.8 °C 12.4 °F /  -10.9 °C 1018.5 in /  34486.4 hPa NE 6.4 mph /  10.3 km/h 6.4 mph /  10.3 km/h 70 % 0.0 in /  0 mm
Meteo18
Compliments of Weather Underground - 4 mb

Script developed by  Jim McMurry - jmcmurry@mwt.net Adapted for the template by  Wim van der Kuil - Leuven-Template.eu

You find our weather info also at:

European Weather Network

Weather Underground

Equipment we use:

Weather-station
Davis Vue

Weather-program
Meteobridge

Weather-server
Raspberry PI 2 B+

Provider
1 and 1

Davis Vue

Meteobridge

Raspberry PI 2 B+

1 and 1